sensor_id;sensor_type;location;lat;lon;timestamp;P1;durP1;ratioP1;P2;durP2;ratioP2
5454;SDS011;2750;49.050;9.250;2023-03-01T00:02:16;18.40;;;11.93;;
5454;SDS011;2750;49.050;9.250;2023-03-01T00:07:17;19.83;;;11.80;;
5454;SDS011;2750;49.050;9.250;2023-03-01T00:12:19;18.27;;;12.03;;
5454;SDS011;2750;49.050;9.250;2023-03-01T00:17:22;20.60;;;13.47;;
5454;SDS011;2750;49.050;9.250;2023-03-01T00:22:23;16.63;;;11.43;;
5454;SDS011;2750;49.050;9.250;2023-03-01T00:27:25;22.03;;;12.47;;
5454;SDS011;2750;49.050;9.250;2023-03-01T00:32:28;20.17;;;14.10;;
5454;SDS011;2750;49.050;9.250;2023-03-01T00:37:29;20.17;;;13.40;;
5454;SDS011;2750;49.050;9.250;2023-03-01T00:42:31;18.20;;;12.07;;
5454;SDS011;2750;49.050;9.250;2023-03-01T00:47:34;17.93;;;12.07;;
5454;SDS011;2750;49.050;9.250;2023-03-01T00:52:35;22.37;;;13.27;;
5454;SDS011;2750;49.050;9.250;2023-03-01T00:57:37;19.70;;;11.93;;
5454;SDS011;2750;49.050;9.250;2023-03-01T01:02:40;20.50;;;13.60;;
5454;SDS011;2750;49.050;9.250;2023-03-01T01:07:41;22.27;;;13.30;;
5454;SDS011;2750;49.050;9.250;2023-03-01T01:12:44;18.97;;;12.93;;
5454;SDS011;2750;49.050;9.250;2023-03-01T01:17:47;18.27;;;13.37;;
5454;SDS011;2750;49.050;9.250;2023-03-01T01:22:48;17.60;;;11.57;;
5454;SDS011;2750;49.050;9.250;2023-03-01T01:27:51;20.20;;;13.00;;
5454;SDS011;2750;49.050;9.250;2023-03-01T01:32:54;18.27;;;12.23;;
5454;SDS011;2750;49.050;9.250;2023-03-01T01:37:55;21.60;;;13.07;;
5454;SDS011;2750;49.050;9.250;2023-03-01T01:42:57;17.37;;;12.27;;
5454;SDS011;2750;49.050;9.250;2023-03-01T01:48:00;20.70;;;12.23;;
5454;SDS011;2750;49.050;9.250;2023-03-01T01:53:07;21.53;;;13.67;;
5454;SDS011;2750;49.050;9.250;2023-03-01T01:58:14;21.77;;;14.83;;
5454;SDS011;2750;49.050;9.250;2023-03-01T02:03:20;20.30;;;12.83;;
5454;SDS011;2750;49.050;9.250;2023-03-01T02:08:29;24.20;;;16.10;;
5454;SDS011;2750;49.050;9.250;2023-03-01T02:13:33;21.63;;;13.27;;
5454;SDS011;2750;49.050;9.250;2023-03-01T02:18:37;19.67;;;13.20;;
5454;SDS011;2750;49.050;9.250;2023-03-01T02:23:41;20.13;;;13.47;;
5454;SDS011;2750;49.050;9.250;2023-03-01T02:28:44;22.60;;;14.43;;
5454;SDS011;2750;49.050;9.250;2023-03-01T02:33:46;20.60;;;13.57;;
5454;SDS011;2750;49.050;9.250;2023-03-01T02:38:48;21.40;;;14.40;;
5454;SDS011;2750;49.050;9.250;2023-03-01T02:43:54;21.20;;;13.37;;
5454;SDS011;2750;49.050;9.250;2023-03-01T02:48:58;22.27;;;13.33;;
5454;SDS011;2750;49.050;9.250;2023-03-01T02:54:04;20.30;;;13.47;;
5454;SDS011;2750;49.050;9.250;2023-03-01T02:59:13;28.77;;;15.10;;
5454;SDS011;2750;49.050;9.250;2023-03-01T03:04:15;22.90;;;14.20;;
5454;SDS011;2750;49.050;9.250;2023-03-01T03:09:18;20.57;;;13.63;;
5454;SDS011;2750;49.050;9.250;2023-03-01T03:14:21;20.10;;;12.57;;
5454;SDS011;2750;49.050;9.250;2023-03-01T03:19:23;20.83;;;13.10;;
5454;SDS011;2750;49.050;9.250;2023-03-01T03:24:25;21.30;;;13.13;;
5454;SDS011;2750;49.050;9.250;2023-03-01T03:29:28;25.57;;;15.23;;
5454;SDS011;2750;49.050;9.250;2023-03-01T03:34:30;20.97;;;14.70;;
5454;SDS011;2750;49.050;9.250;2023-03-01T03:39:31;21.17;;;14.17;;
5454;SDS011;2750;49.050;9.250;2023-03-01T03:44:36;21.27;;;14.43;;
5454;SDS011;2750;49.050;9.250;2023-03-01T03:49:37;25.77;;;14.77;;
5454;SDS011;2750;49.050;9.250;2023-03-01T03:54:39;20.40;;;14.37;;
5454;SDS011;2750;49.050;9.250;2023-03-01T03:59:42;19.83;;;13.67;;
5454;SDS011;2750;49.050;9.250;2023-03-01T04:04:43;22.20;;;14.97;;
5454;SDS011;2750;49.050;9.250;2023-03-01T04:09:45;30.03;;;16.67;;
5454;SDS011;2750;49.050;9.250;2023-03-01T04:14:48;24.40;;;15.60;;
5454;SDS011;2750;49.050;9.250;2023-03-01T04:19:49;22.30;;;14.77;;
5454;SDS011;2750;49.050;9.250;2023-03-01T04:24:51;24.63;;;14.87;;
5454;SDS011;2750;49.050;9.250;2023-03-01T04:29:54;27.30;;;15.80;;
5454;SDS011;2750;49.050;9.250;2023-03-01T04:34:56;21.30;;;14.33;;
5454;SDS011;2750;49.050;9.250;2023-03-01T04:40:00;24.07;;;14.13;;
5454;SDS011;2750;49.050;9.250;2023-03-01T04:45:09;27.50;;;15.13;;
5454;SDS011;2750;49.050;9.250;2023-03-01T04:50:14;26.97;;;15.33;;
5454;SDS011;2750;49.050;9.250;2023-03-01T04:55:16;20.50;;;13.23;;
5454;SDS011;2750;49.050;9.250;2023-03-01T05:00:20;21.63;;;12.90;;
5454;SDS011;2750;49.050;9.250;2023-03-01T05:05:24;30.67;;;18.47;;
5454;SDS011;2750;49.050;9.250;2023-03-01T05:10:28;30.60;;;17.30;;
5454;SDS011;2750;49.050;9.250;2023-03-01T05:15:32;27.77;;;17.33;;
5454;SDS011;2750;49.050;9.250;2023-03-01T05:20:34;26.37;;;16.33;;
5454;SDS011;2750;49.050;9.250;2023-03-01T05:25:36;24.13;;;15.23;;
5454;SDS011;2750;49.050;9.250;2023-03-01T05:30:41;29.83;;;17.10;;
5454;SDS011;2750;49.050;9.250;2023-03-01T05:35:43;26.17;;;16.33;;
5454;SDS011;2750;49.050;9.250;2023-03-01T05:40:47;27.30;;;16.87;;
5454;SDS011;2750;49.050;9.250;2023-03-01T05:45:50;30.80;;;16.73;;
5454;SDS011;2750;49.050;9.250;2023-03-01T05:50:52;23.33;;;12.60;;
5454;SDS011;2750;49.050;9.250;2023-03-01T05:55:54;23.77;;;14.77;;
5454;SDS011;2750;49.050;9.250;2023-03-01T06:00:56;23.13;;;14.80;;
5454;SDS011;2750;49.050;9.250;2023-03-01T06:05:58;27.43;;;16.33;;
5454;SDS011;2750;49.050;9.250;2023-03-01T06:10:59;29.23;;;15.27;;
5454;SDS011;2750;49.050;9.250;2023-03-01T06:16:05;29.57;;;16.73;;
5454;SDS011;2750;49.050;9.250;2023-03-01T06:21:07;26.47;;;16.70;;
5454;SDS011;2750;49.050;9.250;2023-03-01T06:26:09;33.60;;;18.50;;
5454;SDS011;2750;49.050;9.250;2023-03-01T06:31:12;25.47;;;15.63;;
5454;SDS011;2750;49.050;9.250;2023-03-01T06:36:14;27.17;;;18.10;;
5454;SDS011;2750;49.050;9.250;2023-03-01T06:41:18;27.27;;;17.10;;
5454;SDS011;2750;49.050;9.250;2023-03-01T06:46:21;34.07;;;18.23;;
5454;SDS011;2750;49.050;9.250;2023-03-01T06:51:23;28.17;;;18.00;;
5454;SDS011;2750;49.050;9.250;2023-03-01T06:56:25;27.87;;;17.70;;
5454;SDS011;2750;49.050;9.250;2023-03-01T07:01:28;29.57;;;16.90;;
5454;SDS011;2750;49.050;9.250;2023-03-01T07:06:29;27.80;;;17.57;;
5454;SDS011;2750;49.050;9.250;2023-03-01T07:11:31;35.13;;;23.93;;
5454;SDS011;2750;49.050;9.250;2023-03-01T07:16:34;27.43;;;16.57;;
5454;SDS011;2750;49.050;9.250;2023-03-01T07:21:36;29.00;;;17.50;;
5454;SDS011;2750;49.050;9.250;2023-03-01T07:26:38;19.37;;;12.60;;
5454;SDS011;2750;49.050;9.250;2023-03-01T07:31:41;28.07;;;16.20;;
5454;SDS011;2750;49.050;9.250;2023-03-01T07:36:43;27.20;;;16.50;;
5454;SDS011;2750;49.050;9.250;2023-03-01T07:41:45;26.40;;;15.27;;
5454;SDS011;2750;49.050;9.250;2023-03-01T07:46:48;28.60;;;17.50;;
5454;SDS011;2750;49.050;9.250;2023-03-01T07:51:50;24.27;;;13.13;;
5454;SDS011;2750;49.050;9.250;2023-03-01T07:56:51;24.47;;;15.23;;
5454;SDS011;2750;49.050;9.250;2023-03-01T08:01:56;26.33;;;14.63;;
5454;SDS011;2750;49.050;9.250;2023-03-01T08:06:58;26.03;;;16.17;;
5454;SDS011;2750;49.050;9.250;2023-03-01T08:12:00;21.90;;;15.40;;
5454;SDS011;2750;49.050;9.250;2023-03-01T08:17:03;26.90;;;15.30;;
5454;SDS011;2750;49.050;9.250;2023-03-01T08:22:04;24.63;;;16.57;;
5454;SDS011;2750;49.050;9.250;2023-03-01T08:27:06;26.50;;;15.07;;
5454;SDS011;2750;49.050;9.250;2023-03-01T08:32:08;27.30;;;16.10;;
5454;SDS011;2750;49.050;9.250;2023-03-01T08:37:10;27.00;;;17.37;;
5454;SDS011;2750;49.050;9.250;2023-03-01T08:42:12;22.93;;;14.87;;
5454;SDS011;2750;49.050;9.250;2023-03-01T08:47:14;25.07;;;16.53;;
5454;SDS011;2750;49.050;9.250;2023-03-01T08:52:16;24.40;;;14.47;;
5454;SDS011;2750;49.050;9.250;2023-03-01T08:57:18;24.33;;;16.43;;
5454;SDS011;2750;49.050;9.250;2023-03-01T09:02:21;20.20;;;13.03;;
5454;SDS011;2750;49.050;9.250;2023-03-01T09:07:23;17.57;;;13.33;;
5454;SDS011;2750;49.050;9.250;2023-03-01T09:12:28;15.10;;;9.67;;
5454;SDS011;2750;49.050;9.250;2023-03-01T09:17:31;25.33;;;15.83;;
5454;SDS011;2750;49.050;9.250;2023-03-01T09:22:32;21.63;;;13.90;;
5454;SDS011;2750;49.050;9.250;2023-03-01T09:27:34;21.83;;;13.63;;
5454;SDS011;2750;49.050;9.250;2023-03-01T09:32:37;22.27;;;15.37;;
5454;SDS011;2750;49.050;9.250;2023-03-01T09:37:42;22.80;;;14.37;;
5454;SDS011;2750;49.050;9.250;2023-03-01T09:42:49;26.33;;;14.90;;
5454;SDS011;2750;49.050;9.250;2023-03-01T09:47:56;22.33;;;14.80;;
5454;SDS011;2750;49.050;9.250;2023-03-01T09:53:00;22.77;;;15.03;;
5454;SDS011;2750;49.050;9.250;2023-03-01T09:58:05;22.20;;;15.33;;
5454;SDS011;2750;49.050;9.250;2023-03-01T10:03:28;19.60;;;15.93;;
5454;SDS011;2750;49.050;9.250;2023-03-01T10:08:36;24.50;;;16.83;;
5454;SDS011;2750;49.050;9.250;2023-03-01T10:13:45;21.63;;;15.63;;
5454;SDS011;2750;49.050;9.250;2023-03-01T10:18:55;25.73;;;17.07;;
5454;SDS011;2750;49.050;9.250;2023-03-01T10:24:05;21.03;;;14.80;;
5454;SDS011;2750;49.050;9.250;2023-03-01T10:29:12;22.13;;;15.90;;
5454;SDS011;2750;49.050;9.250;2023-03-01T10:34:17;23.10;;;16.50;;
5454;SDS011;2750;49.050;9.250;2023-03-01T10:39:21;27.47;;;16.50;;
5454;SDS011;2750;49.050;9.250;2023-03-01T10:44:35;20.10;;;13.87;;
5454;SDS011;2750;49.050;9.250;2023-03-01T10:49:39;24.60;;;17.43;;
5454;SDS011;2750;49.050;9.250;2023-03-01T10:54:54;25.13;;;16.63;;
5454;SDS011;2750;49.050;9.250;2023-03-01T11:00:09;21.37;;;15.67;;
5454;SDS011;2750;49.050;9.250;2023-03-01T11:05:22;17.50;;;11.67;;
5454;SDS011;2750;49.050;9.250;2023-03-01T11:10:26;24.43;;;16.53;;
5454;SDS011;2750;49.050;9.250;2023-03-01T11:15:29;22.93;;;16.20;;
5454;SDS011;2750;49.050;9.250;2023-03-01T11:20:32;19.17;;;12.60;;
5454;SDS011;2750;49.050;9.250;2023-03-01T11:25:37;21.20;;;16.17;;
5454;SDS011;2750;49.050;9.250;2023-03-01T11:30:42;21.67;;;13.70;;
5454;SDS011;2750;49.050;9.250;2023-03-01T11:35:54;21.27;;;16.47;;
5454;SDS011;2750;49.050;9.250;2023-03-01T11:41:00;21.63;;;14.77;;
5454;SDS011;2750;49.050;9.250;2023-03-01T11:46:16;22.33;;;16.70;;
5454;SDS011;2750;49.050;9.250;2023-03-01T11:51:38;21.57;;;15.00;;
5454;SDS011;2750;49.050;9.250;2023-03-01T11:56:49;23.80;;;15.53;;
5454;SDS011;2750;49.050;9.250;2023-03-01T12:01:59;22.97;;;14.27;;
5454;SDS011;2750;49.050;9.250;2023-03-01T12:07:22;20.30;;;14.87;;
5454;SDS011;2750;49.050;9.250;2023-03-01T12:12:42;23.47;;;16.57;;
5454;SDS011;2750;49.050;9.250;2023-03-01T12:17:57;22.13;;;17.07;;
5454;SDS011;2750;49.050;9.250;2023-03-01T12:28:51;20.20;;;12.83;;
5454;SDS011;2750;49.050;9.250;2023-03-01T12:34:23;21.93;;;14.50;;
5454;SDS011;2750;49.050;9.250;2023-03-01T12:39:40;15.20;;;11.03;;
5454;SDS011;2750;49.050;9.250;2023-03-01T12:45:02;16.80;;;12.13;;
5454;SDS011;2750;49.050;9.250;2023-03-01T12:50:19;23.03;;;15.20;;
5454;SDS011;2750;49.050;9.250;2023-03-01T12:55:28;17.70;;;12.60;;
5454;SDS011;2750;49.050;9.250;2023-03-01T13:00:32;22.40;;;14.83;;
5454;SDS011;2750;49.050;9.250;2023-03-01T13:05:41;18.37;;;13.97;;
5454;SDS011;2750;49.050;9.250;2023-03-01T13:10:56;22.20;;;14.73;;
5454;SDS011;2750;49.050;9.250;2023-03-01T13:21:29;18.40;;;14.93;;
5454;SDS011;2750;49.050;9.250;2023-03-01T13:26:33;15.50;;;11.77;;
5454;SDS011;2750;49.050;9.250;2023-03-01T13:32:25;24.97;;;16.03;;
5454;SDS011;2750;49.050;9.250;2023-03-01T13:37:30;19.03;;;13.10;;
5454;SDS011;2750;49.050;9.250;2023-03-01T13:42:37;15.17;;;10.20;;
5454;SDS011;2750;49.050;9.250;2023-03-01T13:47:46;17.57;;;13.03;;
5454;SDS011;2750;49.050;9.250;2023-03-01T13:52:50;20.13;;;15.07;;
5454;SDS011;2750;49.050;9.250;2023-03-01T13:57:59;16.20;;;13.40;;
5454;SDS011;2750;49.050;9.250;2023-03-01T14:03:03;19.10;;;14.07;;
5454;SDS011;2750;49.050;9.250;2023-03-01T14:08:19;14.90;;;9.47;;
5454;SDS011;2750;49.050;9.250;2023-03-01T14:13:28;20.00;;;14.17;;
5454;SDS011;2750;49.050;9.250;2023-03-01T14:18:39;19.40;;;11.33;;
5454;SDS011;2750;49.050;9.250;2023-03-01T14:23:48;16.80;;;11.50;;
5454;SDS011;2750;49.050;9.250;2023-03-01T14:28:51;17.67;;;13.13;;
5454;SDS011;2750;49.050;9.250;2023-03-01T14:33:54;19.60;;;13.93;;
5454;SDS011;2750;49.050;9.250;2023-03-01T14:38:56;18.37;;;12.00;;
5454;SDS011;2750;49.050;9.250;2023-03-01T14:44:06;19.53;;;12.77;;
5454;SDS011;2750;49.050;9.250;2023-03-01T14:49:14;18.53;;;13.40;;
5454;SDS011;2750;49.050;9.250;2023-03-01T14:54:20;22.50;;;13.87;;
5454;SDS011;2750;49.050;9.250;2023-03-01T14:59:25;23.30;;;12.20;;
5454;SDS011;2750;49.050;9.250;2023-03-01T15:04:27;19.90;;;14.77;;
5454;SDS011;2750;49.050;9.250;2023-03-01T15:09:31;23.20;;;15.60;;
5454;SDS011;2750;49.050;9.250;2023-03-01T15:14:40;19.90;;;11.87;;
5454;SDS011;2750;49.050;9.250;2023-03-01T15:19:45;23.10;;;15.50;;
5454;SDS011;2750;49.050;9.250;2023-03-01T15:24:47;22.23;;;14.87;;
5454;SDS011;2750;49.050;9.250;2023-03-01T15:29:52;19.50;;;14.73;;
5454;SDS011;2750;49.050;9.250;2023-03-01T15:34:59;20.63;;;15.37;;
5454;SDS011;2750;49.050;9.250;2023-03-01T15:40:17;21.27;;;15.17;;
5454;SDS011;2750;49.050;9.250;2023-03-01T15:45:23;23.43;;;15.77;;
5454;SDS011;2750;49.050;9.250;2023-03-01T15:50:27;18.77;;;13.83;;
5454;SDS011;2750;49.050;9.250;2023-03-01T15:55:31;18.27;;;14.43;;
5454;SDS011;2750;49.050;9.250;2023-03-01T16:00:35;19.13;;;14.07;;
5454;SDS011;2750;49.050;9.250;2023-03-01T16:05:38;19.27;;;15.00;;
5454;SDS011;2750;49.050;9.250;2023-03-01T16:10:40;19.63;;;12.43;;
5454;SDS011;2750;49.050;9.250;2023-03-01T16:15:45;17.70;;;11.73;;
5454;SDS011;2750;49.050;9.250;2023-03-01T16:20:46;24.97;;;20.07;;
5454;SDS011;2750;49.050;9.250;2023-03-01T16:25:48;20.60;;;15.40;;
5454;SDS011;2750;49.050;9.250;2023-03-01T16:30:51;19.57;;;15.30;;
5454;SDS011;2750;49.050;9.250;2023-03-01T16:35:53;20.27;;;15.10;;
5454;SDS011;2750;49.050;9.250;2023-03-01T16:40:55;22.83;;;15.53;;
5454;SDS011;2750;49.050;9.250;2023-03-01T16:45:57;25.40;;;16.40;;
5454;SDS011;2750;49.050;9.250;2023-03-01T16:50:59;18.13;;;13.20;;
5454;SDS011;2750;49.050;9.250;2023-03-01T16:56:04;23.43;;;15.40;;
5454;SDS011;2750;49.050;9.250;2023-03-01T17:01:08;21.70;;;16.33;;
5454;SDS011;2750;49.050;9.250;2023-03-01T17:06:12;24.30;;;16.00;;
5454;SDS011;2750;49.050;9.250;2023-03-01T17:11:17;19.83;;;15.23;;
5454;SDS011;2750;49.050;9.250;2023-03-01T17:16:20;18.97;;;14.20;;
5454;SDS011;2750;49.050;9.250;2023-03-01T17:21:22;17.93;;;13.73;;
5454;SDS011;2750;49.050;9.250;2023-03-01T17:26:24;20.10;;;14.40;;
5454;SDS011;2750;49.050;9.250;2023-03-01T17:31:30;21.93;;;16.20;;
5454;SDS011;2750;49.050;9.250;2023-03-01T17:36:32;29.13;;;18.93;;
5454;SDS011;2750;49.050;9.250;2023-03-01T17:41:42;26.27;;;19.80;;
5454;SDS011;2750;49.050;9.250;2023-03-01T17:46:45;31.27;;;22.60;;
5454;SDS011;2750;49.050;9.250;2023-03-01T17:51:47;27.17;;;19.53;;
5454;SDS011;2750;49.050;9.250;2023-03-01T17:56:48;28.27;;;18.73;;
5454;SDS011;2750;49.050;9.250;2023-03-01T18:01:52;30.70;;;20.77;;
5454;SDS011;2750;49.050;9.250;2023-03-01T18:06:53;30.83;;;19.83;;
5454;SDS011;2750;49.050;9.250;2023-03-01T18:11:55;24.90;;;18.50;;
5454;SDS011;2750;49.050;9.250;2023-03-01T18:16:59;31.97;;;23.40;;
5454;SDS011;2750;49.050;9.250;2023-03-01T18:22:01;38.03;;;25.67;;
5454;SDS011;2750;49.050;9.250;2023-03-01T18:27:02;44.13;;;27.97;;
5454;SDS011;2750;49.050;9.250;2023-03-01T18:32:06;38.47;;;26.50;;
5454;SDS011;2750;49.050;9.250;2023-03-01T18:37:07;32.87;;;20.67;;
5454;SDS011;2750;49.050;9.250;2023-03-01T18:42:09;38.40;;;26.07;;
5454;SDS011;2750;49.050;9.250;2023-03-01T18:47:12;31.73;;;22.17;;
5454;SDS011;2750;49.050;9.250;2023-03-01T18:52:13;40.43;;;23.20;;
5454;SDS011;2750;49.050;9.250;2023-03-01T18:57:15;43.93;;;35.17;;
5454;SDS011;2750;49.050;9.250;2023-03-01T19:02:18;29.67;;;20.53;;
5454;SDS011;2750;49.050;9.250;2023-03-01T19:07:21;29.47;;;22.77;;
5454;SDS011;2750;49.050;9.250;2023-03-01T19:12:23;52.60;;;34.73;;
5454;SDS011;2750;49.050;9.250;2023-03-01T19:17:28;88.60;;;55.30;;
5454;SDS011;2750;49.050;9.250;2023-03-01T19:22:30;34.47;;;21.30;;
5454;SDS011;2750;49.050;9.250;2023-03-01T19:27:32;30.90;;;19.30;;
5454;SDS011;2750;49.050;9.250;2023-03-01T19:32:35;31.10;;;19.03;;
5454;SDS011;2750;49.050;9.250;2023-03-01T19:37:37;27.73;;;17.83;;
5454;SDS011;2750;49.050;9.250;2023-03-01T19:42:38;34.73;;;20.50;;
5454;SDS011;2750;49.050;9.250;2023-03-01T19:47:44;29.37;;;18.73;;
5454;SDS011;2750;49.050;9.250;2023-03-01T19:52:46;30.17;;;19.37;;
5454;SDS011;2750;49.050;9.250;2023-03-01T19:57:48;25.23;;;17.07;;
5454;SDS011;2750;49.050;9.250;2023-03-01T20:02:51;24.00;;;16.00;;
5454;SDS011;2750;49.050;9.250;2023-03-01T20:07:53;27.57;;;19.13;;
5454;SDS011;2750;49.050;9.250;2023-03-01T20:12:56;26.33;;;16.37;;
5454;SDS011;2750;49.050;9.250;2023-03-01T20:17:59;26.93;;;15.50;;
5454;SDS011;2750;49.050;9.250;2023-03-01T20:23:00;21.83;;;14.33;;
5454;SDS011;2750;49.050;9.250;2023-03-01T20:28:02;22.63;;;15.97;;
5454;SDS011;2750;49.050;9.250;2023-03-01T20:33:05;22.27;;;14.63;;
5454;SDS011;2750;49.050;9.250;2023-03-01T20:38:07;22.20;;;15.67;;
5454;SDS011;2750;49.050;9.250;2023-03-01T20:43:09;23.30;;;15.40;;
5454;SDS011;2750;49.050;9.250;2023-03-01T20:48:12;21.87;;;15.13;;
5454;SDS011;2750;49.050;9.250;2023-03-01T20:53:13;21.50;;;14.70;;
5454;SDS011;2750;49.050;9.250;2023-03-01T20:58:15;20.87;;;14.77;;
5454;SDS011;2750;49.050;9.250;2023-03-01T21:03:18;22.93;;;14.03;;
5454;SDS011;2750;49.050;9.250;2023-03-01T21:08:19;26.27;;;15.97;;
5454;SDS011;2750;49.050;9.250;2023-03-01T21:13:21;18.50;;;12.87;;
5454;SDS011;2750;49.050;9.250;2023-03-01T21:18:25;26.77;;;17.10;;
5454;SDS011;2750;49.050;9.250;2023-03-01T21:23:29;22.07;;;15.63;;
5454;SDS011;2750;49.050;9.250;2023-03-01T21:28:34;24.70;;;15.47;;
5454;SDS011;2750;49.050;9.250;2023-03-01T21:33:38;22.77;;;14.70;;
5454;SDS011;2750;49.050;9.250;2023-03-01T21:38:41;20.47;;;14.20;;
5454;SDS011;2750;49.050;9.250;2023-03-01T21:43:45;24.97;;;15.93;;
5454;SDS011;2750;49.050;9.250;2023-03-01T21:48:49;23.43;;;15.00;;
5454;SDS011;2750;49.050;9.250;2023-03-01T21:53:53;17.83;;;11.77;;
5454;SDS011;2750;49.050;9.250;2023-03-01T21:58:56;22.07;;;14.33;;
5454;SDS011;2750;49.050;9.250;2023-03-01T22:03:59;20.30;;;14.17;;
5454;SDS011;2750;49.050;9.250;2023-03-01T22:09:03;16.70;;;11.07;;
5454;SDS011;2750;49.050;9.250;2023-03-01T22:14:07;25.40;;;14.60;;
5454;SDS011;2750;49.050;9.250;2023-03-01T22:19:12;24.13;;;15.63;;
5454;SDS011;2750;49.050;9.250;2023-03-01T22:24:15;20.80;;;13.60;;
5454;SDS011;2750;49.050;9.250;2023-03-01T22:29:19;28.23;;;17.00;;
5454;SDS011;2750;49.050;9.250;2023-03-01T22:34:23;24.43;;;17.50;;
5454;SDS011;2750;49.050;9.250;2023-03-01T22:39:25;25.70;;;16.83;;
5454;SDS011;2750;49.050;9.250;2023-03-01T22:44:26;25.77;;;17.23;;
5454;SDS011;2750;49.050;9.250;2023-03-01T22:49:29;30.77;;;17.90;;
5454;SDS011;2750;49.050;9.250;2023-03-01T22:54:31;29.07;;;17.77;;
5454;SDS011;2750;49.050;9.250;2023-03-01T22:59:32;30.03;;;19.63;;
5454;SDS011;2750;49.050;9.250;2023-03-01T23:04:35;23.13;;;15.93;;
5454;SDS011;2750;49.050;9.250;2023-03-01T23:09:37;28.77;;;18.30;;
5454;SDS011;2750;49.050;9.250;2023-03-01T23:14:38;25.40;;;13.97;;
5454;SDS011;2750;49.050;9.250;2023-03-01T23:19:42;28.80;;;18.03;;
5454;SDS011;2750;49.050;9.250;2023-03-01T23:24:43;31.70;;;18.53;;
5454;SDS011;2750;49.050;9.250;2023-03-01T23:29:45;29.00;;;19.00;;
5454;SDS011;2750;49.050;9.250;2023-03-01T23:34:48;30.37;;;17.63;;
5454;SDS011;2750;49.050;9.250;2023-03-01T23:39:49;24.47;;;17.33;;
5454;SDS011;2750;49.050;9.250;2023-03-01T23:44:51;30.87;;;20.27;;
5454;SDS011;2750;49.050;9.250;2023-03-01T23:49:54;20.00;;;12.40;;
5454;SDS011;2750;49.050;9.250;2023-03-01T23:54:56;33.97;;;20.60;;
5454;SDS011;2750;49.050;9.250;2023-03-01T23:59:57;32.37;;;18.10;;
